Time;durP1;ratioP1;P1;durP2;ratioP2;P2;SDS_P1;SDS_P2;PMS_P1;PMS_P2;Temp;Humidity;BMP_temperature;BMP_pressure;BME280_temperature;BME280_humidity;BME280_pressure;Samples;Min_cycle;Max_cycle;Signal;HPM_P1;HPM_P2
2021/07/30 00:01:21;;;;;;;7.22;3.42;;;;;;;18.20;63.84;100037.69;5106182;27;20070;-81
2021/07/30 00:03:50;;;;;;;4.38;3.17;;;;;;;18.18;63.68;100038.78;5100947;27;20048;-80
2021/07/30 00:06:25;;;;;;;6.50;3.58;;;;;;;18.17;64.14;100039.75;5103321;28;20467;-80
2021/07/30 00:08:52;;;;;;;3.90;3.05;;;;;;;18.15;63.91;100039.88;5111728;27;20039;-80
2021/07/30 00:11:20;;;;;;;4.55;3.15;;;;;;;18.13;64.05;100041.84;5109574;27;20051;-80
2021/07/30 00:13:46;;;;;;;7.20;3.30;;;;;;;18.10;63.79;100039.41;5110255;27;20054;-80
2021/07/30 00:16:13;;;;;;;4.90;3.17;;;;;;;18.09;63.72;100045.78;5114929;27;20051;-80
2021/07/30 00:18:41;;;;;;;6.45;3.35;;;;;;;18.11;63.99;100042.94;5123831;28;20050;-79
2021/07/30 00:21:07;;;;;;;3.75;3.15;;;;;;;18.08;63.92;100043.22;5128362;27;20577;-79
2021/07/30 00:23:34;;;;;;;4.72;3.50;;;;;;;18.03;64.20;100043.59;5124968;27;20548;-79
2021/07/30 00:26:02;;;;;;;5.80;3.30;;;;;;;18.04;64.25;100049.81;5123333;27;20067;-79
2021/07/30 00:28:29;;;;;;;5.45;3.50;;;;;;;17.99;64.62;100044.81;5122169;27;20058;-79
2021/07/30 00:30:55;;;;;;;4.25;3.33;;;;;;;17.98;64.42;100044.94;5122134;27;20501;-79
2021/07/30 00:33:22;;;;;;;5.03;3.50;;;;;;;17.95;64.59;100048.72;5120749;27;20054;-79
2021/07/30 00:35:49;;;;;;;4.95;3.40;;;;;;;17.92;64.65;100040.97;5100655;28;20115;-79
2021/07/30 00:38:15;;;;;;;6.97;3.85;;;;;;;17.90;65.00;100042.94;5118310;27;20059;-80
2021/07/30 00:40:42;;;;;;;5.95;3.72;;;;;;;17.88;65.07;100048.41;5110253;27;20043;-81
2021/07/30 00:43:09;;;;;;;5.88;3.55;;;;;;;17.82;65.41;100046.22;5118264;27;20397;-81
2021/07/30 00:45:36;;;;;;;8.98;3.67;;;;;;;17.82;65.72;100048.06;5115197;28;20508;-80
2021/07/30 00:48:03;;;;;;;5.65;3.70;;;;;;;17.78;66.25;100052.84;5113657;27;20044;-81
2021/07/30 00:50:30;;;;;;;6.50;3.80;;;;;;;17.74;66.83;100042.50;5113692;27;20108;-81
2021/07/30 00:52:57;;;;;;;6.32;3.80;;;;;;;17.70;67.07;100047.25;5113771;27;20058;-80
2021/07/30 00:55:24;;;;;;;6.38;4.07;;;;;;;17.66;67.19;100037.75;5118006;28;20107;-80
2021/07/30 00:57:52;;;;;;;7.18;3.72;;;;;;;17.68;67.45;100042.97;5128072;27;20048;-80
2021/07/30 01:00:19;;;;;;;6.63;4.00;;;;;;;17.63;66.93;100040.63;5126426;28;20118;-80
2021/07/30 01:02:47;;;;;;;8.73;4.10;;;;;;;17.58;67.63;100045.53;5124092;28;20047;-79
2021/07/30 01:05:14;;;;;;;6.90;4.20;;;;;;;17.53;68.44;100039.69;5104620;28;20051;-80
2021/07/30 01:07:41;;;;;;;8.98;4.40;;;;;;;17.51;68.78;100033.63;5123138;28;20036;-79
2021/07/30 01:10:08;;;;;;;6.03;3.88;;;;;;;17.48;68.80;100034.72;5112602;28;20071;-80
2021/07/30 01:12:34;;;;;;;5.05;3.97;;;;;;;17.43;69.31;100028.03;5119668;28;20459;-80
2021/07/30 01:15:02;;;;;;;6.57;4.03;;;;;;;17.40;69.27;100036.31;5120866;28;20058;-79
2021/07/30 01:17:29;;;;;;;6.53;4.15;;;;;;;17.33;69.88;100043.97;5126844;28;20107;-79
2021/07/30 01:19:56;;;;;;;5.43;4.00;;;;;;;17.24;69.97;100046.56;5116147;28;20103;-81
2021/07/30 01:22:36;;;;;;;8.27;4.18;;;;;;;17.21;70.47;100044.13;5108819;28;20045;-81
2021/07/30 01:25:03;;;;;;;;;;;;;;;17.23;70.50;100044.84;5094681;28;20055;-81
2021/07/30 01:27:30;;;;;;;6.35;3.85;;;;;;;17.22;70.66;100049.34;5113871;27;19927;-81
2021/07/30 01:29:56;;;;;;;6.38;4.40;;;;;;;17.23;70.67;100050.19;5111611;27;20048;-81
2021/07/30 01:32:23;;;;;;;6.13;3.90;;;;;;;17.21;70.68;100041.44;5117833;27;20099;-81
2021/07/30 01:34:50;;;;;;;8.73;4.00;;;;;;;17.23;70.90;100042.16;5118735;28;20132;-81
2021/07/30 01:37:17;;;;;;;8.98;4.43;;;;;;;17.17;70.88;100044.34;5111770;28;20040;-81
2021/07/30 01:39:45;;;;;;;4.95;3.63;;;;;;;17.17;70.84;100039.00;5116504;28;20051;-81
2021/07/30 01:42:11;;;;;;;5.57;3.80;;;;;;;17.13;70.95;100036.72;5115798;27;20499;-81
2021/07/30 01:44:38;;;;;;;8.18;3.90;;;;;;;17.13;70.75;100040.25;5128301;27;20044;-81
2021/07/30 01:47:06;;;;;;;6.60;4.30;;;;;;;17.16;70.58;100039.97;5131887;27;20229;-81
2021/07/30 01:49:33;;;;;;;4.53;3.30;;;;;;;17.16;70.52;100039.13;5115542;28;20048;-81
2021/07/30 01:52:01;;;;;;;4.25;3.55;;;;;;;17.16;70.32;100031.94;5118671;27;20517;-81
2021/07/30 01:54:28;;;;;;;8.30;3.40;;;;;;;17.17;69.80;100035.47;5135657;27;20070;-81
2021/07/30 01:56:55;;;;;;;5.78;3.55;;;;;;;17.18;69.48;100037.19;5142906;27;20039;-81
2021/07/30 01:59:21;;;;;;;6.25;3.28;;;;;;;17.21;68.59;100033.41;5137362;27;20412;-81
2021/07/30 02:01:48;;;;;;;4.72;3.78;;;;;;;17.15;68.67;100027.59;5130431;27;20078;-81
2021/07/30 02:04:18;;;;;;;6.45;3.40;;;;;;;17.13;68.90;100028.69;5131696;28;20020;-80
2021/07/30 02:06:45;;;;;;;7.20;3.58;;;;;;;17.12;68.69;100029.66;5137535;27;20332;-80
2021/07/30 02:09:11;;;;;;;4.05;3.20;;;;;;;17.06;68.78;100027.47;5139430;27;20047;-80
2021/07/30 02:11:50;;;;;;;4.60;3.33;;;;;;;17.05;68.87;100028.44;5127468;28;20053;-81
2021/07/30 02:14:17;;;;;;;5.50;3.25;;;;;;;17.02;68.79;100024.19;5115784;27;20052;-81
2021/07/30 02:16:50;;;;;;;5.53;3.13;;;;;;;16.99;68.64;100024.44;5111323;27;20051;-81
2021/07/30 02:19:18;;;;;;;5.35;3.35;;;;;;;16.84;68.88;100005.09;5115424;27;20059;-80
2021/07/30 02:21:47;;;;;;;6.40;3.75;;;;;;;16.94;68.79;100023.09;5113142;27;20047;-81
2021/07/30 02:24:13;;;;;;;7.28;3.97;;;;;;;16.92;69.05;100025.88;5117138;27;20471;-81
2021/07/30 02:26:41;;;;;;;6.75;3.30;;;;;;;16.88;69.25;100018.22;5111703;27;20075;-81
2021/07/30 02:29:09;;;;;;;4.18;3.47;;;;;;;16.88;68.81;100021.75;5108328;27;20056;-80
2021/07/30 02:31:38;;;;;;;4.35;3.47;;;;;;;16.88;69.04;100020.91;5121225;27;20115;-81
2021/07/30 02:34:04;;;;;;;6.25;3.33;;;;;;;16.86;69.12;100015.66;5115940;27;20120;-81
2021/07/30 02:36:32;;;;;;;6.18;3.30;;;;;;;16.86;69.47;100023.69;5101465;28;20482;-81
2021/07/30 02:39:00;;;;;;;7.63;3.50;;;;;;;16.83;69.71;100029.31;5101985;27;20138;-80
2021/07/30 02:41:27;;;;;;;6.60;3.72;;;;;;;16.79;69.83;100020.66;5118827;27;20078;-79
2021/07/30 02:43:56;;;;;;;5.35;3.55;;;;;;;16.77;70.12;100021.75;5118003;27;20048;-80
2021/07/30 02:46:23;;;;;;;4.00;3.30;;;;;;;16.76;70.05;100025.38;5112154;27;20043;-81
2021/07/30 02:48:50;;;;;;;6.45;3.55;;;;;;;16.73;70.53;100015.78;5107388;27;20100;-81
2021/07/30 02:51:18;;;;;;;5.18;3.90;;;;;;;16.69;70.67;100025.00;5103919;27;20051;-81
2021/07/30 02:53:44;;;;;;;7.85;3.67;;;;;;;16.66;70.79;100016.41;5105024;27;20039;-81
2021/07/30 02:56:11;;;;;;;4.93;3.70;;;;;;;16.65;71.10;100023.56;5095619;28;20075;-81
2021/07/30 02:58:38;;;;;;;5.78;3.70;;;;;;;16.63;71.41;100021.97;5113233;27;20054;-81
2021/07/30 03:01:05;;;;;;;9.05;3.78;;;;;;;16.59;71.57;100017.81;5095011;27;20051;-81
2021/07/30 03:03:32;;;;;;;5.30;3.85;;;;;;;16.56;71.71;100012.69;5109327;27;20066;-81
2021/07/30 03:06:00;;;;;;;7.18;3.42;;;;;;;16.52;71.75;100008.56;5111911;27;20048;-81
2021/07/30 03:08:28;;;;;;;5.95;4.05;;;;;;;16.47;71.72;100009.78;5116316;27;20051;-81
2021/07/30 03:10:56;;;;;;;5.95;4.03;;;;;;;16.43;72.31;100007.44;5114153;27;20054;-81
2021/07/30 03:13:23;;;;;;;5.72;3.83;;;;;;;16.38;72.01;100010.47;5109814;27;20064;-81
2021/07/30 03:15:53;;;;;;;5.45;3.83;;;;;;;16.35;72.57;100008.06;5115542;27;20458;-81
2021/07/30 03:18:20;;;;;;;6.38;3.70;;;;;;;16.30;72.04;99996.84;5113297;27;20104;-81
2021/07/30 03:20:47;;;;;;;5.95;3.60;;;;;;;16.31;72.17;100003.06;5110097;27;20509;-81
2021/07/30 03:23:14;;;;;;;7.22;3.70;;;;;;;16.28;72.04;100006.81;5113207;27;20513;-81
2021/07/30 03:25:41;;;;;;;7.35;3.85;;;;;;;16.26;72.20;100002.53;5107496;27;22204;-81
2021/07/30 03:28:10;;;;;;;6.18;4.00;;;;;;;16.27;72.39;100005.09;5094070;28;20047;-81
2021/07/30 03:30:38;;;;;;;6.82;3.70;;;;;;;16.28;72.58;100004.13;5110567;27;20048;-81
2021/07/30 03:33:05;;;;;;;5.45;3.80;;;;;;;16.22;72.53;99993.06;5112061;27;20407;-81
2021/07/30 03:35:33;;;;;;;5.72;4.60;;;;;;;16.24;72.66;100007.16;5111091;27;20149;-79
2021/07/30 03:38:00;;;;;;;5.22;3.83;;;;;;;16.21;72.54;100002.91;5095365;28;20044;-81
2021/07/30 03:40:26;;;;;;;5.65;3.72;;;;;;;16.18;72.82;100002.28;5109768;27;20044;-81
2021/07/30 03:42:55;;;;;;;8.57;4.13;;;;;;;16.20;73.13;100001.22;5110100;27;20336;-82
2021/07/30 03:45:22;;;;;;;6.97;3.65;;;;;;;16.22;73.08;99996.56;5108864;27;20047;-81
2021/07/30 03:47:48;;;;;;;6.22;3.47;;;;;;;16.20;72.86;99995.03;5091707;28;20043;-81
2021/07/30 03:50:17;;;;;;;5.20;3.83;;;;;;;16.24;73.22;100002.66;5108435;27;20086;-81
2021/07/30 03:52:44;;;;;;;8.68;3.83;;;;;;;16.29;72.77;99994.31;5114673;28;20385;-80
2021/07/30 03:55:10;;;;;;;5.15;3.80;;;;;;;16.29;72.39;99996.97;5125732;27;20050;-81
2021/07/30 03:57:37;;;;;;;5.43;3.58;;;;;;;16.29;72.66;100005.00;5132553;27;20087;-81
2021/07/30 04:00:12;;;;;;;7.00;3.72;;;;;;;16.29;73.03;100003.16;5136787;27;20052;-81
2021/07/30 04:02:40;;;;;;;4.05;3.60;;;;;;;16.31;73.14;100003.06;5116849;28;20135;-81
2021/07/30 04:05:08;;;;;;;6.93;3.67;;;;;;;16.29;73.27;100002.31;5113655;27;20051;-81
2021/07/30 04:07:34;;;;;;;5.32;4.05;;;;;;;16.28;73.51;100003.28;5116760;27;20097;-81
2021/07/30 04:10:01;;;;;;;4.57;3.90;;;;;;;16.22;74.00;100001.06;5110274;27;20493;-80
2021/07/30 04:12:29;;;;;;;6.65;3.70;;;;;;;16.07;74.62;100001.28;5115356;27;20073;-80
2021/07/30 04:14:57;;;;;;;6.38;4.18;;;;;;;16.00;75.10;100005.41;5118332;27;20040;-79
2021/07/30 04:17:24;;;;;;;5.97;3.65;;;;;;;15.91;75.59;100008.72;5124306;27;20093;-80
2021/07/30 04:19:50;;;;;;;5.90;4.25;;;;;;;15.89;76.18;100004.50;5115170;27;20849;-80
2021/07/30 04:22:17;;;;;;;4.93;3.75;;;;;;;15.95;76.46;100007.53;5114656;27;20121;-80
2021/07/30 04:24:44;;;;;;;7.97;4.13;;;;;;;16.00;76.52;100004.53;5110308;27;20465;-80
2021/07/30 04:27:10;;;;;;;6.43;4.60;;;;;;;16.04;76.16;100000.69;5106403;27;20050;-80
2021/07/30 04:29:38;;;;;;;7.28;4.38;;;;;;;16.07;76.30;99984.41;5108546;27;20061;-80
2021/07/30 04:32:12;;;;;;;11.25;4.55;;;;;;;16.18;76.26;100002.28;5106154;27;20058;-81
2021/07/30 04:34:39;;;;;;;6.22;4.05;;;;;;;16.24;75.54;100008.00;5107205;27;20058;-81
2021/07/30 04:37:07;;;;;;;6.65;4.00;;;;;;;16.29;75.42;100007.66;5107070;27;20050;-81
2021/07/30 04:39:35;;;;;;;6.68;3.95;;;;;;;16.32;75.40;100007.44;5102754;27;20563;-79
2021/07/30 04:42:04;;;;;;;6.00;4.10;;;;;;;16.35;75.32;100009.88;5111691;27;20862;-80
2021/07/30 04:44:33;;;;;;;5.82;3.78;;;;;;;16.37;75.28;100010.59;5109574;27;20039;-79
2021/07/30 04:47:00;;;;;;;5.93;3.97;;;;;;;16.39;75.51;100008.66;5108941;27;20165;-80
2021/07/30 04:49:27;;;;;;;5.88;4.00;;;;;;;16.39;75.49;100003.31;5110500;27;20058;-79
2021/07/30 04:52:01;;;;;;;6.05;3.80;;;;;;;16.34;76.13;100001.00;5114895;27;20070;-80
2021/07/30 04:54:29;;;;;;;4.23;3.53;;;;;;;16.35;76.16;100005.38;5110791;28;20062;-79
2021/07/30 04:56:57;;;;;;;9.57;4.28;;;;;;;16.34;75.59;100009.03;5115722;27;20903;-80
2021/07/30 04:59:24;;;;;;;5.80;4.18;;;;;;;16.24;76.14;100001.81;5109628;28;20063;-80
2021/07/30 05:01:50;;;;;;;7.18;4.43;;;;;;;16.25;76.78;100008.84;5110328;27;20048;-80
2021/07/30 05:04:19;;;;;;;6.53;3.83;;;;;;;16.27;76.78;100002.44;5105475;28;20209;-80
2021/07/30 05:06:46;;;;;;;6.55;4.38;;;;;;;16.30;77.04;99996.00;5107868;28;20066;-79
2021/07/30 05:09:13;;;;;;;6.10;4.53;;;;;;;16.32;76.78;100002.94;5107217;28;20399;-80
2021/07/30 05:11:39;;;;;;;6.78;4.43;;;;;;;16.32;76.78;99997.59;5106660;28;20115;-80
2021/07/30 05:14:06;;;;;;;6.68;5.00;;;;;;;16.35;76.78;100004.53;5107892;28;20054;-80
2021/07/30 05:16:33;;;;;;;5.25;4.53;;;;;;;16.40;76.46;100003.19;5107737;28;20071;-80
2021/07/30 05:19:00;;;;;;;5.85;4.18;;;;;;;16.45;76.54;100003.69;5108769;28;20227;-80
2021/07/30 05:21:27;;;;;;;9.75;7.35;;;;;;;16.57;76.03;100001.88;5110091;28;20047;-80
2021/07/30 05:23:54;;;;;;;6.68;4.95;;;;;;;16.64;76.00;99997.81;5117280;28;20048;-81
2021/07/30 05:26:21;;;;;;;8.05;4.78;;;;;;;16.70;75.44;100005.31;5119343;28;20080;-81
2021/07/30 05:28:48;;;;;;;8.20;4.90;;;;;;;16.75;74.99;99995.13;5123150;28;20055;-81
2021/07/30 05:31:17;;;;;;;7.30;5.18;;;;;;;16.75;74.81;99984.44;5114315;28;20126;-81
2021/07/30 05:33:46;;;;;;;6.90;4.90;;;;;;;16.86;74.70;99994.28;5108609;28;20050;-81
2021/07/30 05:36:18;;;;;;;8.90;4.57;;;;;;;16.93;73.86;99995.50;5116295;28;20051;-81
2021/07/30 05:38:45;;;;;;;6.38;4.22;;;;;;;17.07;73.43;99997.06;5116681;28;20074;-81
2021/07/30 05:41:13;;;;;;;7.00;4.80;;;;;;;17.17;72.33;99998.88;5115205;28;20050;-81
2021/07/30 05:43:42;;;;;;;6.10;4.07;;;;;;;17.23;71.35;99981.47;5118542;28;20119;-81
2021/07/30 05:46:09;;;;;;;5.95;4.18;;;;;;;17.40;71.00;99988.13;5101522;28;20047;-81
2021/07/30 05:48:36;;;;;;;7.22;4.50;;;;;;;17.48;69.86;99991.03;5116030;28;20044;-84
2021/07/30 05:51:04;;;;;;;8.32;4.70;;;;;;;17.53;69.24;99991.50;5094943;28;20039;-84
2021/07/30 05:53:31;;;;;;;5.25;4.20;;;;;;;17.58;68.67;99986.63;5117208;28;20055;-85
2021/07/30 05:56:01;;;;;;;8.38;4.03;;;;;;;17.65;68.32;99979.81;5125527;28;20043;-86
2021/07/30 05:58:28;;;;;;;8.48;4.38;;;;;;;17.72;68.47;99981.03;5141718;27;20123;-85
2021/07/30 06:00:55;;;;;;;7.07;4.22;;;;;;;17.78;67.58;99991.22;5123236;28;20054;-85
2021/07/30 06:03:21;;;;;;;7.78;4.38;;;;;;;17.84;67.03;99987.19;5130915;28;20040;-85
2021/07/30 06:05:48;;;;;;;6.07;4.18;;;;;;;17.92;66.94;99992.75;5128311;28;20055;-87
2021/07/30 06:08:15;;;;;;;8.73;4.10;;;;;;;17.97;66.74;99987.00;5107042;28;20044;-84
2021/07/30 06:10:42;;;;;;;6.18;4.25;;;;;;;18.06;66.42;99997.81;5131851;28;20091;-85
2021/07/30 06:13:17;;;;;;;10.68;4.05;;;;;;;18.22;64.69;99974.09;5127522;28;20067;-84
2021/07/30 06:15:44;;;;;;;8.35;4.57;;;;;;;18.49;65.41;99981.59;5117049;28;20487;-83
2021/07/30 06:18:16;;;;;;;4.80;3.13;;;;;;;18.90;64.23;99985.19;5089845;28;20040;-86
2021/07/30 06:20:44;;;;;;;5.80;3.50;;;;;;;19.44;61.77;99986.63;5120138;27;20048;-84
2021/07/30 06:23:14;;;;;;;4.43;3.03;;;;;;;19.87;58.65;99979.06;5116628;27;20079;-85
2021/07/30 06:25:40;;;;;;;5.97;2.90;;;;;;;20.51;55.77;99983.00;5113071;27;20759;-85
2021/07/30 06:28:09;;;;;;;6.47;2.92;;;;;;;21.17;54.79;99978.34;5107461;27;20054;-83
2021/07/30 06:30:36;;;;;;;6.30;2.88;;;;;;;21.75;51.84;99969.91;5115834;28;20048;-84
2021/07/30 06:33:12;;;;;;;5.68;2.72;;;;;;;22.25;49.72;99977.47;5116593;28;20043;-85
2021/07/30 06:35:43;;;;;;;4.80;3.10;;;;;;;22.65;48.55;99977.75;5106706;27;20056;-84
2021/07/30 06:38:11;;;;;;;5.18;3.00;;;;;;;23.00;47.38;99973.22;5114162;27;20138;-87
2021/07/30 06:40:37;;;;;;;5.82;3.05;;;;;;;23.31;47.11;99970.81;5114288;27;20047;-85
2021/07/30 06:43:07;;;;;;;8.55;3.30;;;;;;;23.55;46.37;99975.50;5113119;28;20101;-86
2021/07/30 06:45:34;;;;;;;5.93;3.10;;;;;;;23.63;46.00;99970.94;5126875;27;20126;-86
2021/07/30 06:48:01;;;;;;;6.45;3.90;;;;;;;23.58;46.41;99973.31;5102247;28;20486;-86
2021/07/30 06:50:28;;;;;;;7.97;4.00;;;;;;;23.45;46.97;99979.13;5114627;28;20414;-86
2021/07/30 06:52:55;;;;;;;8.18;3.85;;;;;;;23.32;47.51;99977.91;5116650;28;20047;-89
2021/07/30 06:55:22;;;;;;;12.57;4.40;;;;;;;23.41;47.34;99969.69;5106079;28;20722;-86
2021/07/30 06:57:49;;;;;;;5.55;3.47;;;;;;;23.59;46.21;99971.47;5098463;28;20077;-86
2021/07/30 07:00:16;;;;;;;5.55;3.42;;;;;;;23.68;46.66;99967.75;5115245;28;20089;-87
2021/07/30 07:02:43;;;;;;;6.35;3.05;;;;;;;23.74;46.22;99972.50;5119975;27;20058;-85
2021/07/30 07:05:18;;;;;;;4.68;2.70;;;;;;;23.93;46.19;99972.16;5103730;28;20047;-85
2021/07/30 07:07:48;;;;;;;6.68;3.30;;;;;;;23.88;44.99;99969.13;5116618;27;20067;-84
2021/07/30 07:10:15;;;;;;;13.25;4.03;;;;;;;23.85;45.88;99966.75;5114213;28;20225;-84
2021/07/30 07:12:43;;;;;;;48.63;8.80;;;;;;;23.73;45.89;99960.00;5112517;28;20499;-84
2021/07/30 07:15:10;;;;;;;10.40;4.18;;;;;;;23.85;47.22;99963.22;5133228;27;20032;-84
2021/07/30 07:17:38;;;;;;;7.78;3.33;;;;;;;23.92;46.08;99967.78;5136785;27;20073;-83
2021/07/30 07:20:06;;;;;;;10.15;3.80;;;;;;;23.87;46.39;99964.75;5132243;27;20053;-83
2021/07/30 07:22:32;;;;;;;9.38;3.88;;;;;;;23.62;46.57;99966.53;5134363;27;20039;-82
2021/07/30 07:25:00;;;;;;;10.52;3.90;;;;;;;23.50;48.77;99958.88;5123687;27;20473;-83
2021/07/30 07:27:27;;;;;;;4.75;3.72;;;;;;;23.57;47.30;99954.56;5105933;28;20519;-83
2021/07/30 07:29:53;;;;;;;5.03;3.30;;;;;;;23.71;47.92;99959.31;5120736;28;20045;-84
2021/07/30 07:32:22;;;;;;;15.55;6.90;;;;;;;23.85;46.61;99958.66;5124314;28;20532;-83
2021/07/30 07:34:51;;;;;;;5.85;3.25;;;;;;;23.90;46.73;99958.16;5121661;28;20475;-82
2021/07/30 07:37:20;;;;;;;;;;;;;;;23.90;46.80;99956.28;5122864;27;20040;-83
2021/07/30 07:39:47;;;;;;;5.10;3.10;;;;;;;23.93;46.25;99947.81;5122482;28;20397;-83
2021/07/30 07:42:14;;;;;;;6.80;2.78;;;;;;;23.91;45.90;99944.47;5133327;28;20091;-83
2021/07/30 07:44:43;;;;;;;6.40;2.97;;;;;;;23.66;44.25;99943.59;5134527;27;20027;-83
2021/07/30 07:47:11;;;;;;;27.67;17.35;;;;;;;23.39;46.10;99952.78;5132739;27;20099;-83
2021/07/30 07:49:37;;;;;;;17.48;4.55;;;;;;;23.41;46.75;99949.94;5137350;27;20106;-82
2021/07/30 07:52:07;;;;;;;6.53;2.70;;;;;;;23.70;46.17;99952.22;5129902;28;20060;-83
2021/07/30 07:54:53;;;;;;;5.32;2.72;;;;;;;23.89;45.05;99957.31;5120280;27;20039;-84
2021/07/30 07:57:20;;;;;;;4.25;2.42;;;;;;;24.02;45.54;99956.81;5119856;28;20079;-83
2021/07/30 07:59:50;;;;;;;10.85;3.13;;;;;;;24.06;44.76;99955.47;5139425;27;20057;-84
2021/07/30 08:02:17;;;;;;;3.08;2.35;;;;;;;23.98;44.15;99952.72;5134426;28;20052;-85
2021/07/30 08:04:44;;;;;;;3.83;2.60;;;;;;;23.98;43.90;99953.59;5134166;27;20027;-84
2021/07/30 08:07:15;;;;;;;4.43;3.15;;;;;;;23.87;43.75;99950.38;5133467;27;20028;-83
2021/07/30 08:09:42;;;;;;;5.55;3.03;;;;;;;23.86;44.34;99951.38;5137493;28;20051;-83
2021/07/30 08:12:11;;;;;;;4.95;2.60;;;;;;;23.89;44.69;99949.19;5129619;27;20027;-85
2021/07/30 08:14:41;;;;;;;4.82;2.40;;;;;;;24.06;43.67;99939.22;5137691;28;20024;-83
2021/07/30 08:20:34;;;;;;;4.65;2.50;;;;;;;24.23;44.06;99951.75;5133077;27;20044;-84
2021/07/30 08:23:01;;;;;;;4.93;2.58;;;;;;;24.23;43.28;99940.94;5127467;27;20024;-80
2021/07/30 08:25:28;;;;;;;13.30;3.47;;;;;;;24.17;43.18;99936.16;5134102;27;20082;-80
2021/07/30 08:27:55;;;;;;;7.90;3.40;;;;;;;23.96;44.35;99950.19;5126509;27;20039;-80
2021/07/30 08:30:22;;;;;;;4.55;2.17;;;;;;;24.04;44.12;99936.69;5130344;28;20042;-81
2021/07/30 08:32:49;;;;;;;3.63;2.17;;;;;;;24.17;42.87;99938.03;5115884;27;20131;-78
2021/07/30 08:35:15;;;;;;;6.53;2.30;;;;;;;24.29;42.70;99931.28;5103580;28;20054;-81
2021/07/30 08:38:07;;;;;;;3.28;2.25;;;;;;;24.22;42.61;99930.25;5123350;27;20042;-81
2021/07/30 08:40:38;;;;;;;3.03;2.15;;;;;;;24.10;43.50;99924.31;5119155;28;20054;-83
2021/07/30 08:43:05;;;;;;;3.65;2.45;;;;;;;24.14;43.06;99920.28;5115349;28;20060;-81
2021/07/30 08:45:32;;;;;;;2.95;2.10;;;;;;;24.30;43.69;99909.47;5110372;28;20080;-81
2021/07/30 08:48:01;;;;;;;6.18;2.60;;;;;;;24.47;42.54;99923.81;5114863;27;20405;-81
2021/07/30 08:50:29;;;;;;;4.05;1.95;;;;;;;24.47;42.45;99912.97;5116458;27;20594;-81
2021/07/30 08:53:03;;;;;;;3.30;2.10;;;;;;;24.45;42.59;99910.44;5105544;28;20426;-82
2021/07/30 08:55:31;;;;;;;3.28;2.35;;;;;;;24.48;43.36;99922.78;5108760;27;20079;-82
2021/07/30 08:57:58;;;;;;;3.30;2.47;;;;;;;24.46;43.86;99919.41;5109010;28;20537;-82
2021/07/30 09:00:25;;;;;;;4.35;2.40;;;;;;;24.52;43.65;99905.19;5109052;28;20147;-82
2021/07/30 09:02:54;;;;;;;5.32;2.75;;;;;;;24.51;42.91;99906.22;5108004;28;20437;-80
2021/07/30 09:05:29;;;;;;;6.00;2.30;;;;;;;24.42;42.91;99904.53;5110478;28;20143;-79
2021/07/30 09:07:58;;;;;;;3.72;2.45;;;;;;;24.37;43.83;99906.94;5112492;27;20588;-82
2021/07/30 09:10:32;;;;;;;3.20;2.60;;;;;;;24.28;43.23;99905.22;5109239;28;20671;-82
2021/07/30 09:13:17;;;;;;;3.45;2.30;;;;;;;24.33;43.90;99908.28;5112250;28;20126;-82
2021/07/30 09:16:05;;;;;;;3.13;2.30;;;;;;;24.39;43.79;99904.91;5106806;28;20139;-82
2021/07/30 09:18:37;;;;;;;4.43;2.25;;;;;;;24.45;44.67;99896.91;5105303;28;21677;-81
2021/07/30 09:21:26;;;;;;;4.25;2.22;;;;;;;24.40;42.30;99893.03;5116038;28;20039;-81
2021/07/30 09:24:03;;;;;;;7.22;2.47;;;;;;;24.39;42.10;99885.94;5106665;28;20139;-80
2021/07/30 09:26:40;;;;;;;7.35;2.75;;;;;;;24.39;41.60;99875.13;5106514;28;20047;-80
2021/07/30 09:29:07;;;;;;;3.25;2.47;;;;;;;24.40;42.67;99888.44;5109323;28;20471;-80
2021/07/30 09:31:44;;;;;;;7.78;2.40;;;;;;;24.34;42.56;99882.91;5109031;28;20047;-79
2021/07/30 09:34:22;;;;;;;6.47;2.80;;;;;;;24.29;41.86;99875.31;5112503;28;20070;-82
2021/07/30 09:36:58;;;;;;;5.35;2.55;;;;;;;24.28;42.25;99872.75;5092836;28;20120;-82
2021/07/30 09:39:34;;;;;;;5.85;2.70;;;;;;;24.28;42.35;99872.75;5112865;28;20098;-81
2021/07/30 09:42:11;;;;;;;7.72;2.47;;;;;;;24.27;43.01;99887.31;5128413;28;20139;-80
2021/07/30 09:44:44;;;;;;;4.65;2.83;;;;;;;24.34;43.22;99874.78;5112686;28;20091;-81
2021/07/30 09:47:15;;;;;;;5.75;2.92;;;;;;;24.38;43.58;99878.84;5102839;28;20051;-81
2021/07/30 09:49:45;;;;;;;5.65;2.50;;;;;;;24.37;42.98;99861.75;5126968;27;20414;-81
2021/07/30 09:52:21;;;;;;;3.33;2.50;;;;;;;24.40;43.81;99863.25;5130475;27;20043;-81
2021/07/30 09:54:58;;;;;;;3.95;2.40;;;;;;;24.38;43.54;99855.34;5108589;27;20048;-82
2021/07/30 09:57:29;;;;;;;4.07;2.80;;;;;;;24.37;43.75;99858.22;5110446;27;20111;-82
2021/07/30 09:59:59;;;;;;;6.38;3.13;;;;;;;24.40;43.71;99855.97;5128129;27;20093;-82
2021/07/30 10:02:33;;;;;;;3.65;2.35;;;;;;;24.51;43.98;99857.50;5113565;27;20063;-82
2021/07/30 10:05:04;;;;;;;3.25;2.42;;;;;;;24.55;43.33;99842.59;5118779;28;20048;-81
2021/07/30 10:07:32;;;;;;;3.55;2.70;;;;;;;24.64;42.94;99841.53;5116735;28;20108;-82
2021/07/30 10:13:12;;;;;;;3.70;3.10;;;;;;;24.67;42.97;99834.91;5092056;27;20048;-82
2021/07/30 10:15:43;;;;;;;4.30;2.85;;;;;;;24.74;42.71;99831.31;5109102;27;20039;-81
2021/07/30 10:18:13;;;;;;;3.35;2.65;;;;;;;24.83;42.81;99835.69;5111379;27;20654;-81
2021/07/30 10:20:41;;;;;;;2.67;2.47;;;;;;;25.01;42.09;99834.63;5114872;28;20051;-80
2021/07/30 10:23:12;;;;;;;3.88;2.63;;;;;;;25.20;41.83;99838.72;5117193;28;20077;-82
2021/07/30 10:25:50;;;;;;;4.35;3.00;;;;;;;25.38;41.98;99823.84;5121294;28;20111;-82
2021/07/30 10:28:22;;;;;;;5.33;2.83;;;;;;;25.56;41.83;99825.41;5115587;27;20072;-82
2021/07/30 10:31:01;;;;;;;3.45;2.42;;;;;;;25.60;41.45;99818.59;5110338;27;20078;-81
2021/07/30 10:33:31;;;;;;;4.63;2.72;;;;;;;25.68;41.50;99823.97;5109446;28;20568;-80
2021/07/30 10:35:59;;;;;;;3.13;2.38;;;;;;;25.86;41.55;99816.34;5123714;27;20036;-82
2021/07/30 10:38:28;;;;;;;3.33;2.60;;;;;;;25.93;41.28;99817.31;5121762;27;20190;-81
2021/07/30 10:40:57;;;;;;;4.32;2.97;;;;;;;25.99;41.77;99819.25;5111176;27;20054;-80
2021/07/30 10:43:27;;;;;;;3.53;2.78;;;;;;;26.14;40.92;99819.28;5111052;27;20496;-80
2021/07/30 10:46:08;;;;;;;2.92;2.63;;;;;;;25.96;41.03;99814.22;5112517;27;20043;-79
2021/07/30 10:48:41;;;;;;;5.65;3.10;;;;;;;25.84;41.60;99807.56;5115770;27;20047;-80
2021/07/30 10:51:25;;;;;;;3.17;2.75;;;;;;;25.89;41.29;99793.44;5123102;27;20054;-81
2021/07/30 10:54:05;;;;;;;5.05;3.10;;;;;;;25.99;40.92;99789.41;5123020;27;20151;-82
2021/07/30 10:56:38;;;;;;;5.10;3.10;;;;;;;25.87;40.94;99785.47;5128735;27;20054;-82
2021/07/30 10:59:06;;;;;;;9.20;3.60;;;;;;;25.76;41.12;99781.38;5119172;27;20083;-81
2021/07/30 11:01:36;;;;;;;4.88;3.45;;;;;;;25.59;41.54;99784.38;5115563;27;20126;-81
2021/07/30 11:04:03;;;;;;;5.47;3.85;;;;;;;25.64;42.03;99780.13;5123664;27;20043;-81
2021/07/30 11:06:51;;;;;;;4.47;3.17;;;;;;;25.84;41.75;99772.28;5132396;27;20082;-80
2021/07/30 11:09:18;;;;;;;5.10;3.22;;;;;;;25.98;41.22;99771.44;5136334;27;20059;-80
2021/07/30 11:12:01;;;;;;;8.02;3.10;;;;;;;26.12;41.28;99769.81;5135114;28;20036;-81
2021/07/30 11:14:40;;;;;;;5.35;3.33;;;;;;;26.28;41.17;99780.47;5136013;28;20036;-81
2021/07/30 11:17:13;;;;;;;4.75;3.20;;;;;;;26.40;40.63;99770.84;5137777;28;20031;-82
2021/07/30 11:19:43;;;;;;;7.55;3.10;;;;;;;26.33;39.80;99763.63;5135568;27;20044;-80
2021/07/30 11:22:14;;;;;;;5.30;3.55;;;;;;;26.21;40.38;99771.38;5135158;27;20059;-80
2021/07/30 11:24:50;;;;;;;21.70;4.00;;;;;;;26.26;40.62;99765.41;5134778;28;20051;-82
2021/07/30 11:27:19;;;;;;;4.45;3.10;;;;;;;26.40;40.75;99762.69;5142876;27;20100;-80
2021/07/30 11:29:50;;;;;;;5.00;3.30;;;;;;;26.57;39.32;99760.63;5140902;27;20053;-80
2021/07/30 11:32:19;;;;;;;4.75;3.10;;;;;;;26.43;39.27;99756.06;5119948;28;20126;-79
2021/07/30 11:34:49;;;;;;;5.20;3.20;;;;;;;26.44;40.03;99765.88;5109830;28;20061;-80
2021/07/30 11:37:28;;;;;;;5.80;3.60;;;;;;;26.65;39.71;99751.50;5113741;27;20051;-80
2021/07/30 11:39:57;;;;;;;6.05;3.08;;;;;;;26.84;38.87;99751.72;5111513;27;20118;-80
2021/07/30 11:42:30;;;;;;;3.80;3.00;;;;;;;27.00;38.94;99755.28;5113382;27;20056;-82
2021/07/30 11:45:04;;;;;;;5.38;3.08;;;;;;;27.10;37.55;99745.75;5107396;27;20040;-80